首页
METAR-TAF:

METAR-TAF

机场 :

匹兹堡国际机场

匹兹堡, 宾夕法尼亚州, 美国

纬度: 40-30-14N, 经度: 080-15-59W, 海拔: 366米

当前天气观测

该预报发布于14分钟前的14:51 UTC
风速8节,风向西南
温度 24°C
湿度 83%
气压 1016 hPa
能見度: 16.1公里
散云层高于2200英尺
散云层高于11000英尺
多云层高于25000英尺

METAR: KPIT 111451Z 23008KT 10SM SCT022 SCT110 BKN250 24/21 A2999 RMK AO2 SLP154 60000 T02390206 51006

时间: 11:05 (15:05 UTC)

预报

该预报发布于18分钟前的14:47 UTC
预报有效从11日的 15点(UTC)到 12日的 18点(UTC)
风速6节,风向西
能見度: 10公里
散云层高于5000英尺
从 11日的 2100点(UTC)
风速6节,风向西
能見度: 10公里
多云层高于6000英尺, 积雨云.
附近有雷暴
从 12日的 0100点(UTC)
风速3节,风向多变
能見度: 10公里
散云层高于4500英尺
从 12日的 0900点(UTC)
风速节,风向
能見度: 8.0公里
散云层高于4000英尺
轻雾
从 12日的 1300点(UTC)
风速3节,风向多变
能見度: 10公里
散云层高于5000英尺

TAF: KPIT 111447Z 1115/1218 26006KT P6SM SCT050 FM112100 27006KT P6SM VCTS BKN060CB FM120100 VRB03KT P6SM SCT045 FM120900 00000KT 5SM BR SCT040 FM121300 VRB03KT P6SM SCT050

超过4000个机场的气象观测和天气预报(METAR&TAF报告)。

可查询的气象台以黄色和红色小点在地图上表示。

将鼠标移到小点上方,可查看气象台名称。

然后点击查看天气观测和预报。

如需切换地图:点击带黑十字的绿色按钮放大地图;点击带横线的绿色按钮缩小地图;或者点击绿色箭头查看邻近地区的地图。


METAR-TAF: